sensor_id;sensor_type;location;lat;lon;timestamp;pressure;altitude;pressure_sealevel;temperature
42673;BMP280;28284;46.514;30.724;2023-08-06T00:01:10;99994.00;;;28.54
42673;BMP280;28284;46.514;30.724;2023-08-06T00:03:35;99993.25;;;28.54
42673;BMP280;28284;46.514;30.724;2023-08-06T00:06:01;99994.75;;;28.55
42673;BMP280;28284;46.514;30.724;2023-08-06T00:08:26;99983.09;;;28.56
42673;BMP280;28284;46.514;30.724;2023-08-06T00:10:52;99987.38;;;28.57
42673;BMP280;28284;46.514;30.724;2023-08-06T00:13:17;99976.97;;;28.58
42673;BMP280;28284;46.514;30.724;2023-08-06T00:15:43;99988.69;;;28.56
42673;BMP280;28284;46.514;30.724;2023-08-06T00:18:08;99988.69;;;28.56
42673;BMP280;28284;46.514;30.724;2023-08-06T00:20:33;99980.06;;;28.54
42673;BMP280;28284;46.514;30.724;2023-08-06T00:22:59;99978.56;;;28.53
42673;BMP280;28284;46.514;30.724;2023-08-06T00:25:24;99978.28;;;28.51
42673;BMP280;28284;46.514;30.724;2023-08-06T00:27:49;99964.91;;;28.50
42673;BMP280;28284;46.514;30.724;2023-08-06T00:30:15;99959.59;;;28.46
42673;BMP280;28284;46.514;30.724;2023-08-06T00:32:40;99947.75;;;28.40
42673;BMP280;28284;46.514;30.724;2023-08-06T00:35:05;99951.31;;;28.41
42673;BMP280;28284;46.514;30.724;2023-08-06T00:37:31;99949.56;;;28.38
42673;BMP280;28284;46.514;30.724;2023-08-06T00:39:56;99946.81;;;28.32
42673;BMP280;28284;46.514;30.724;2023-08-06T00:42:21;99947.84;;;28.29
42673;BMP280;28284;46.514;30.724;2023-08-06T00:44:47;99953.69;;;28.26
42673;BMP280;28284;46.514;30.724;2023-08-06T00:47:13;99951.22;;;28.17
42673;BMP280;28284;46.514;30.724;2023-08-06T00:49:38;99961.38;;;28.15
42673;BMP280;28284;46.514;30.724;2023-08-06T00:52:04;99956.09;;;28.11
42673;BMP280;28284;46.514;30.724;2023-08-06T00:54:30;99950.03;;;28.07
42673;BMP280;28284;46.514;30.724;2023-08-06T00:56:56;99946.25;;;28.05
42673;BMP280;28284;46.514;30.724;2023-08-06T00:59:22;99948.06;;;28.02
42673;BMP280;28284;46.514;30.724;2023-08-06T01:01:48;99945.78;;;28.01
42673;BMP280;28284;46.514;30.724;2023-08-06T01:04:15;99944.28;;;28.00
42673;BMP280;28284;46.514;30.724;2023-08-06T01:12:09;99928.81;;;27.99
42673;BMP280;28284;46.514;30.724;2023-08-06T01:14:41;99936.94;;;27.97
42673;BMP280;28284;46.514;30.724;2023-08-06T01:17:10;99930.13;;;27.98
42673;BMP280;28284;46.514;30.724;2023-08-06T01:19:37;99930.34;;;28.00
42673;BMP280;28284;46.514;30.724;2023-08-06T01:22:02;99923.00;;;28.02
42673;BMP280;28284;46.514;30.724;2023-08-06T01:24:28;99926.03;;;28.04
42673;BMP280;28284;46.514;30.724;2023-08-06T01:29:25;99920.41;;;28.10
42673;BMP280;28284;46.514;30.724;2023-08-06T01:31:53;99920.41;;;28.10
42673;BMP280;28284;46.514;30.724;2023-08-06T01:34:21;99924.19;;;28.12
42673;BMP280;28284;46.514;30.724;2023-08-06T01:36:46;99926.75;;;28.10
42673;BMP280;28284;46.514;30.724;2023-08-06T01:39:12;99919.88;;;28.11
42673;BMP280;28284;46.514;30.724;2023-08-06T01:41:37;99908.28;;;28.07
42673;BMP280;28284;46.514;30.724;2023-08-06T01:44:03;99906.53;;;28.04
42673;BMP280;28284;46.514;30.724;2023-08-06T01:46:28;99902.25;;;28.03
42673;BMP280;28284;46.514;30.724;2023-08-06T01:48:53;99895.41;;;27.99
42673;BMP280;28284;46.514;30.724;2023-08-06T01:51:19;99877.72;;;27.96
42673;BMP280;28284;46.514;30.724;2023-08-06T01:53:44;99880.78;;;27.93
42673;BMP280;28284;46.514;30.724;2023-08-06T01:56:09;99864.59;;;27.91
42673;BMP280;28284;46.514;30.724;2023-08-06T01:58:35;99864.38;;;27.89
42673;BMP280;28284;46.514;30.724;2023-08-06T02:01:03;99867.19;;;27.84
42673;BMP280;28284;46.514;30.724;2023-08-06T02:03:28;99851.78;;;27.83
42673;BMP280;28284;46.514;30.724;2023-08-06T02:05:54;99847.25;;;27.80
42673;BMP280;28284;46.514;30.724;2023-08-06T02:08:19;99849.31;;;27.74
42673;BMP280;28284;46.514;30.724;2023-08-06T02:10:45;99846.50;;;27.74
42673;BMP280;28284;46.514;30.724;2023-08-06T02:13:10;99855.16;;;27.71
42673;BMP280;28284;46.514;30.724;2023-08-06T02:15:36;99842.22;;;27.73
42673;BMP280;28284;46.514;30.724;2023-08-06T02:18:06;99859.47;;;27.72
42673;BMP280;28284;46.514;30.724;2023-08-06T02:20:31;99864.47;;;27.73
42673;BMP280;28284;46.514;30.724;2023-08-06T02:22:57;99852.09;;;27.74
42673;BMP280;28284;46.514;30.724;2023-08-06T02:25:22;99861.69;;;27.73
42673;BMP280;28284;46.514;30.724;2023-08-06T02:27:47;99851.81;;;27.72
42673;BMP280;28284;46.514;30.724;2023-08-06T02:30:13;99855.16;;;27.71
42673;BMP280;28284;46.514;30.724;2023-08-06T02:32:38;99858.97;;;27.68
42673;BMP280;28284;46.514;30.724;2023-08-06T02:35:06;99852.88;;;27.69
42673;BMP280;28284;46.514;30.724;2023-08-06T02:37:35;99854.66;;;27.67
42673;BMP280;28284;46.514;30.724;2023-08-06T02:40:03;99854.66;;;27.67
42673;BMP280;28284;46.514;30.724;2023-08-06T02:42:29;99848.34;;;27.66
42673;BMP280;28284;46.514;30.724;2023-08-06T02:44:54;99839.00;;;27.64
42673;BMP280;28284;46.514;30.724;2023-08-06T02:47:22;99821.06;;;27.65
42673;BMP280;28284;46.514;30.724;2023-08-06T02:49:48;99831.38;;;27.70
42673;BMP280;28284;46.514;30.724;2023-08-06T02:52:14;99814.38;;;27.73
42673;BMP280;28284;46.514;30.724;2023-08-06T02:54:39;99817.84;;;27.84
42673;BMP280;28284;46.514;30.724;2023-08-06T02:57:05;99808.69;;;27.89
42673;BMP280;28284;46.514;30.724;2023-08-06T02:59:33;99831.94;;;28.21
42673;BMP280;28284;46.514;30.724;2023-08-06T03:01:59;99834.00;;;28.44
42673;BMP280;28284;46.514;30.724;2023-08-06T03:04:24;99843.84;;;28.69
42673;BMP280;28284;46.514;30.724;2023-08-06T03:06:50;99848.56;;;28.98
42673;BMP280;28284;46.514;30.724;2023-08-06T03:09:16;99857.25;;;29.31
42673;BMP280;28284;46.514;30.724;2023-08-06T03:11:41;99879.03;;;29.69
42673;BMP280;28284;46.514;30.724;2023-08-06T03:14:07;99882.25;;;30.04
42673;BMP280;28284;46.514;30.724;2023-08-06T03:16:32;99891.03;;;30.39
42673;BMP280;28284;46.514;30.724;2023-08-06T03:18:57;99903.50;;;30.77
42673;BMP280;28284;46.514;30.724;2023-08-06T03:21:23;99911.44;;;31.11
42673;BMP280;28284;46.514;30.724;2023-08-06T03:23:48;99923.97;;;31.44
42673;BMP280;28284;46.514;30.724;2023-08-06T03:26:13;99921.56;;;31.81
42673;BMP280;28284;46.514;30.724;2023-08-06T03:28:39;99920.38;;;32.17
42673;BMP280;28284;46.514;30.724;2023-08-06T03:31:04;99917.94;;;32.41
42673;BMP280;28284;46.514;30.724;2023-08-06T03:33:30;99923.41;;;32.74
42673;BMP280;28284;46.514;30.724;2023-08-06T03:35:58;99935.69;;;33.06
42673;BMP280;28284;46.514;30.724;2023-08-06T03:38:23;99928.56;;;33.40
42673;BMP280;28284;46.514;30.724;2023-08-06T03:40:49;99924.09;;;33.67
42673;BMP280;28284;46.514;30.724;2023-08-06T03:43:14;99933.50;;;33.99
42673;BMP280;28284;46.514;30.724;2023-08-06T03:45:40;99930.09;;;34.38
42673;BMP280;28284;46.514;30.724;2023-08-06T03:48:05;99941.28;;;34.60
42673;BMP280;28284;46.514;30.724;2023-08-06T03:50:31;99923.38;;;34.80
42673;BMP280;28284;46.514;30.724;2023-08-06T03:52:56;99931.53;;;35.08
42673;BMP280;28284;46.514;30.724;2023-08-06T03:55:22;99932.50;;;35.42
42673;BMP280;28284;46.514;30.724;2023-08-06T03:57:48;99923.66;;;35.86
42673;BMP280;28284;46.514;30.724;2023-08-06T04:00:13;99929.44;;;36.12
42673;BMP280;28284;46.514;30.724;2023-08-06T04:02:38;99931.94;;;36.25
42673;BMP280;28284;46.514;30.724;2023-08-06T04:05:04;99934.84;;;36.35
42673;BMP280;28284;46.514;30.724;2023-08-06T04:07:31;99939.94;;;36.53
42673;BMP280;28284;46.514;30.724;2023-08-06T04:09:57;99912.75;;;36.74
42673;BMP280;28284;46.514;30.724;2023-08-06T04:12:23;99936.31;;;37.03
42673;BMP280;28284;46.514;30.724;2023-08-06T04:14:49;99929.59;;;37.24
42673;BMP280;28284;46.514;30.724;2023-08-06T04:17:15;99923.22;;;37.33
42673;BMP280;28284;46.514;30.724;2023-08-06T04:19:40;99928.41;;;37.63
42673;BMP280;28284;46.514;30.724;2023-08-06T04:22:05;99917.09;;;37.72
42673;BMP280;28284;46.514;30.724;2023-08-06T04:24:31;99927.56;;;37.89
42673;BMP280;28284;46.514;30.724;2023-08-06T04:26:57;99935.66;;;38.11
42673;BMP280;28284;46.514;30.724;2023-08-06T04:29:22;99919.13;;;38.07
42673;BMP280;28284;46.514;30.724;2023-08-06T04:31:47;99933.88;;;38.34
42673;BMP280;28284;46.514;30.724;2023-08-06T04:34:13;99939.22;;;38.49
42673;BMP280;28284;46.514;30.724;2023-08-06T04:36:38;99927.03;;;38.65
42673;BMP280;28284;46.514;30.724;2023-08-06T04:39:04;99920.28;;;38.79
42673;BMP280;28284;46.514;30.724;2023-08-06T04:41:29;99925.41;;;39.11
42673;BMP280;28284;46.514;30.724;2023-08-06T04:43:54;99930.84;;;39.28
42673;BMP280;28284;46.514;30.724;2023-08-06T04:46:21;99924.44;;;39.37
42673;BMP280;28284;46.514;30.724;2023-08-06T04:48:46;99941.63;;;39.59
42673;BMP280;28284;46.514;30.724;2023-08-06T04:51:12;99924.97;;;39.75
42673;BMP280;28284;46.514;30.724;2023-08-06T04:53:37;99918.59;;;40.06
42673;BMP280;28284;46.514;30.724;2023-08-06T04:56:02;99934.88;;;40.06
42673;BMP280;28284;46.514;30.724;2023-08-06T04:58:28;99926.94;;;39.93
42673;BMP280;28284;46.514;30.724;2023-08-06T05:00:53;99934.28;;;40.07
42673;BMP280;28284;46.514;30.724;2023-08-06T05:03:19;99921.13;;;40.12
42673;BMP280;28284;46.514;30.724;2023-08-06T05:05:45;99934.34;;;39.98
42673;BMP280;28284;46.514;30.724;2023-08-06T05:08:14;99921.78;;;40.01
42673;BMP280;28284;46.514;30.724;2023-08-06T05:10:41;99923.50;;;40.06
42673;BMP280;28284;46.514;30.724;2023-08-06T05:13:07;99922.47;;;39.90
42673;BMP280;28284;46.514;30.724;2023-08-06T05:15:35;99924.75;;;40.03
42673;BMP280;28284;46.514;30.724;2023-08-06T05:18:01;99922.41;;;40.32
42673;BMP280;28284;46.514;30.724;2023-08-06T05:20:26;99917.00;;;40.35
42673;BMP280;28284;46.514;30.724;2023-08-06T05:22:52;99918.72;;;40.40
42673;BMP280;28284;46.514;30.724;2023-08-06T05:25:17;99912.66;;;40.34
42673;BMP280;28284;46.514;30.724;2023-08-06T05:27:45;99907.69;;;40.56
42673;BMP280;28284;46.514;30.724;2023-08-06T05:30:11;99913.88;;;40.75
42673;BMP280;28284;46.514;30.724;2023-08-06T05:32:36;99904.78;;;40.88
42673;BMP280;28284;46.514;30.724;2023-08-06T05:35:02;99906.66;;;41.40
42673;BMP280;28284;46.514;30.724;2023-08-06T05:37:27;99909.91;;;41.71
42673;BMP280;28284;46.514;30.724;2023-08-06T05:39:53;99912.00;;;42.18
42673;BMP280;28284;46.514;30.724;2023-08-06T05:42:18;99911.44;;;42.32
42673;BMP280;28284;46.514;30.724;2023-08-06T05:44:43;99903.69;;;42.46
42673;BMP280;28284;46.514;30.724;2023-08-06T05:47:09;99899.59;;;42.24
42673;BMP280;28284;46.514;30.724;2023-08-06T05:49:34;99903.66;;;41.97
42673;BMP280;28284;46.514;30.724;2023-08-06T05:51:59;99903.38;;;42.04
42673;BMP280;28284;46.514;30.724;2023-08-06T05:54:25;99902.69;;;42.66
42673;BMP280;28284;46.514;30.724;2023-08-06T05:56:50;99897.63;;;42.78
42673;BMP280;28284;46.514;30.724;2023-08-06T05:59:15;99898.88;;;42.37
42673;BMP280;28284;46.514;30.724;2023-08-06T06:01:41;99895.19;;;42.10
42673;BMP280;28284;46.514;30.724;2023-08-06T06:04:06;99892.03;;;41.93
42673;BMP280;28284;46.514;30.724;2023-08-06T06:06:31;99886.50;;;41.84
42673;BMP280;28284;46.514;30.724;2023-08-06T06:08:57;99881.13;;;41.65
42673;BMP280;28284;46.514;30.724;2023-08-06T06:11:22;99885.00;;;41.83
42673;BMP280;28284;46.514;30.724;2023-08-06T06:13:50;99876.69;;;42.23
42673;BMP280;28284;46.514;30.724;2023-08-06T06:16:15;99882.38;;;42.23
42673;BMP280;28284;46.514;30.724;2023-08-06T06:18:41;99890.94;;;42.23
42673;BMP280;28284;46.514;30.724;2023-08-06T06:21:06;99891.31;;;42.42
42673;BMP280;28284;46.514;30.724;2023-08-06T06:23:31;99886.44;;;42.82
42673;BMP280;28284;46.514;30.724;2023-08-06T06:25:57;99891.19;;;43.18
42673;BMP280;28284;46.514;30.724;2023-08-06T06:28:22;99886.00;;;43.28
42673;BMP280;28284;46.514;30.724;2023-08-06T06:30:47;99893.13;;;43.69
42673;BMP280;28284;46.514;30.724;2023-08-06T06:33:15;99891.19;;;44.30
42673;BMP280;28284;46.514;30.724;2023-08-06T06:35:40;99899.28;;;44.79
42673;BMP280;28284;46.514;30.724;2023-08-06T06:38:05;99894.81;;;44.77
42673;BMP280;28284;46.514;30.724;2023-08-06T06:40:31;99895.56;;;44.92
42673;BMP280;28284;46.514;30.724;2023-08-06T06:42:58;99894.06;;;44.91
42673;BMP280;28284;46.514;30.724;2023-08-06T06:45:23;99889.75;;;44.90
42673;BMP280;28284;46.514;30.724;2023-08-06T06:47:48;99875.63;;;44.79
42673;BMP280;28284;46.514;30.724;2023-08-06T06:50:13;99879.34;;;44.81
42673;BMP280;28284;46.514;30.724;2023-08-06T06:52:39;99867.16;;;44.81
42673;BMP280;28284;46.514;30.724;2023-08-06T06:55:04;99868.09;;;44.70
42673;BMP280;28284;46.514;30.724;2023-08-06T06:57:30;99860.69;;;44.65
42673;BMP280;28284;46.514;30.724;2023-08-06T06:59:55;99864.97;;;44.64
42673;BMP280;28284;46.514;30.724;2023-08-06T07:02:20;99863.44;;;44.17
42673;BMP280;28284;46.514;30.724;2023-08-06T07:04:45;99862.38;;;43.67
42673;BMP280;28284;46.514;30.724;2023-08-06T07:07:11;99851.06;;;43.14
42673;BMP280;28284;46.514;30.724;2023-08-06T07:09:36;99844.09;;;42.90
42673;BMP280;28284;46.514;30.724;2023-08-06T07:12:01;99839.84;;;43.18
42673;BMP280;28284;46.514;30.724;2023-08-06T07:14:28;99842.91;;;43.35
42673;BMP280;28284;46.514;30.724;2023-08-06T07:16:53;99835.59;;;43.45
42673;BMP280;28284;46.514;30.724;2023-08-06T07:19:18;99841.38;;;43.61
42673;BMP280;28284;46.514;30.724;2023-08-06T07:21:44;99833.72;;;43.36
42673;BMP280;28284;46.514;30.724;2023-08-06T07:24:09;99831.44;;;42.80
42673;BMP280;28284;46.514;30.724;2023-08-06T07:26:34;99822.16;;;42.28
42673;BMP280;28284;46.514;30.724;2023-08-06T07:29:00;99819.69;;;42.47
42673;BMP280;28284;46.514;30.724;2023-08-06T07:31:25;99821.22;;;42.37
42673;BMP280;28284;46.514;30.724;2023-08-06T07:33:51;99816.47;;;42.41
42673;BMP280;28284;46.514;30.724;2023-08-06T07:36:16;99818.81;;;42.45
42673;BMP280;28284;46.514;30.724;2023-08-06T07:38:42;99811.84;;;42.34
42673;BMP280;28284;46.514;30.724;2023-08-06T07:41:08;99806.31;;;42.25
42673;BMP280;28284;46.514;30.724;2023-08-06T07:43:33;99815.34;;;42.33
42673;BMP280;28284;46.514;30.724;2023-08-06T07:45:58;99815.13;;;42.29
42673;BMP280;28284;46.514;30.724;2023-08-06T07:48:25;99807.03;;;42.12
42673;BMP280;28284;46.514;30.724;2023-08-06T07:50:52;99815.41;;;41.72
42673;BMP280;28284;46.514;30.724;2023-08-06T07:53:19;99819.94;;;41.41
42673;BMP280;28284;46.514;30.724;2023-08-06T07:55:47;99814.19;;;41.16
42673;BMP280;28284;46.514;30.724;2023-08-06T07:58:12;99813.94;;;41.12
42673;BMP280;28284;46.514;30.724;2023-08-06T08:00:38;99807.66;;;41.14
42673;BMP280;28284;46.514;30.724;2023-08-06T08:03:04;99799.75;;;41.01
42673;BMP280;28284;46.514;30.724;2023-08-06T08:05:29;99809.53;;;40.87
42673;BMP280;28284;46.514;30.724;2023-08-06T08:07:55;99808.19;;;40.76
42673;BMP280;28284;46.514;30.724;2023-08-06T08:10:20;99798.66;;;40.72
42673;BMP280;28284;46.514;30.724;2023-08-06T08:12:49;99794.06;;;40.67
42673;BMP280;28284;46.514;30.724;2023-08-06T08:15:14;99805.56;;;40.46
42673;BMP280;28284;46.514;30.724;2023-08-06T08:17:42;99811.81;;;40.34
42673;BMP280;28284;46.514;30.724;2023-08-06T08:20:08;99808.66;;;40.18
42673;BMP280;28284;46.514;30.724;2023-08-06T08:22:34;99804.16;;;39.93
42673;BMP280;28284;46.514;30.724;2023-08-06T08:24:59;99803.16;;;39.88
42673;BMP280;28284;46.514;30.724;2023-08-06T08:27:24;99803.59;;;39.73
42673;BMP280;28284;46.514;30.724;2023-08-06T08:29:51;99791.97;;;39.49
42673;BMP280;28284;46.514;30.724;2023-08-06T08:32:16;99797.00;;;39.50
42673;BMP280;28284;46.514;30.724;2023-08-06T08:34:41;99798.25;;;39.47
42673;BMP280;28284;46.514;30.724;2023-08-06T08:37:07;99797.66;;;39.49
42673;BMP280;28284;46.514;30.724;2023-08-06T08:39:33;99790.56;;;39.38
42673;BMP280;28284;46.514;30.724;2023-08-06T08:42:01;99788.06;;;39.12
42673;BMP280;28284;46.514;30.724;2023-08-06T08:44:28;99783.13;;;38.82
42673;BMP280;28284;46.514;30.724;2023-08-06T08:46:56;99785.28;;;38.63
42673;BMP280;28284;46.514;30.724;2023-08-06T08:49:22;99782.97;;;38.41
42673;BMP280;28284;46.514;30.724;2023-08-06T08:51:48;99771.38;;;38.18
42673;BMP280;28284;46.514;30.724;2023-08-06T08:54:14;99763.66;;;38.09
42673;BMP280;28284;46.514;30.724;2023-08-06T08:56:40;99768.72;;;38.11
42673;BMP280;28284;46.514;30.724;2023-08-06T08:59:06;99758.72;;;38.19
42673;BMP280;28284;46.514;30.724;2023-08-06T09:01:31;99753.81;;;38.20
42673;BMP280;28284;46.514;30.724;2023-08-06T09:03:57;99751.44;;;38.07
42673;BMP280;28284;46.514;30.724;2023-08-06T09:06:23;99744.88;;;37.95
42673;BMP280;28284;46.514;30.724;2023-08-06T09:09:01;99728.69;;;37.77
42673;BMP280;28284;46.514;30.724;2023-08-06T09:11:32;99731.22;;;37.63
42673;BMP280;28284;46.514;30.724;2023-08-06T09:14:04;99742.34;;;37.24
42673;BMP280;28284;46.514;30.724;2023-08-06T09:16:36;99721.09;;;36.87
42673;BMP280;28284;46.514;30.724;2023-08-06T09:19:11;99724.63;;;36.69
42673;BMP280;28284;46.514;30.724;2023-08-06T09:21:41;99722.66;;;36.36
42673;BMP280;28284;46.514;30.724;2023-08-06T09:24:10;99729.03;;;36.36
42673;BMP280;28284;46.514;30.724;2023-08-06T09:26:36;99727.56;;;36.36
42673;BMP280;28284;46.514;30.724;2023-08-06T09:29:04;99720.56;;;36.36
42673;BMP280;28284;46.514;30.724;2023-08-06T09:31:33;99722.44;;;36.25
42673;BMP280;28284;46.514;30.724;2023-08-06T09:33:59;99712.88;;;35.94
42673;BMP280;28284;46.514;30.724;2023-08-06T09:36:25;99716.78;;;35.65
42673;BMP280;28284;46.514;30.724;2023-08-06T09:38:53;99699.25;;;35.33
42673;BMP280;28284;46.514;30.724;2023-08-06T09:41:27;99708.03;;;35.20
42673;BMP280;28284;46.514;30.724;2023-08-06T09:43:56;99699.81;;;35.14
42673;BMP280;28284;46.514;30.724;2023-08-06T09:46:21;99691.13;;;35.20
42673;BMP280;28284;46.514;30.724;2023-08-06T09:48:47;99691.97;;;35.13
42673;BMP280;28284;46.514;30.724;2023-08-06T09:51:13;99689.16;;;35.13
42673;BMP280;28284;46.514;30.724;2023-08-06T09:53:38;99679.91;;;34.96
42673;BMP280;28284;46.514;30.724;2023-08-06T09:56:05;99673.22;;;34.84
42673;BMP280;28284;46.514;30.724;2023-08-06T09:58:31;99680.81;;;34.74
42673;BMP280;28284;46.514;30.724;2023-08-06T10:00:56;99687.72;;;34.56
42673;BMP280;28284;46.514;30.724;2023-08-06T10:03:22;99689.25;;;34.50
42673;BMP280;28284;46.514;30.724;2023-08-06T10:05:47;99686.88;;;34.39
42673;BMP280;28284;46.514;30.724;2023-08-06T10:08:13;99676.41;;;34.32
42673;BMP280;28284;46.514;30.724;2023-08-06T10:10:38;99670.41;;;34.28
42673;BMP280;28284;46.514;30.724;2023-08-06T10:13:07;99667.28;;;34.17
42673;BMP280;28284;46.514;30.724;2023-08-06T10:15:32;99667.34;;;34.02
42673;BMP280;28284;46.514;30.724;2023-08-06T10:17:59;99651.50;;;33.89
42673;BMP280;28284;46.514;30.724;2023-08-06T10:20:24;99647.41;;;33.76
42673;BMP280;28284;46.514;30.724;2023-08-06T10:23:00;99654.41;;;33.60
42673;BMP280;28284;46.514;30.724;2023-08-06T10:25:26;99665.66;;;33.45
42673;BMP280;28284;46.514;30.724;2023-08-06T10:27:55;99655.94;;;33.31
42673;BMP280;28284;46.514;30.724;2023-08-06T10:30:28;99663.84;;;33.18
42673;BMP280;28284;46.514;30.724;2023-08-06T10:32:55;99657.28;;;33.00
42673;BMP280;28284;46.514;30.724;2023-08-06T10:37:57;99653.88;;;32.80
42673;BMP280;28284;46.514;30.724;2023-08-06T10:40:23;99645.84;;;32.69
42673;BMP280;28284;46.514;30.724;2023-08-06T10:42:49;99637.41;;;32.54
42673;BMP280;28284;46.514;30.724;2023-08-06T10:45:15;99638.72;;;32.46
42673;BMP280;28284;46.514;30.724;2023-08-06T10:47:42;99627.06;;;32.34
42673;BMP280;28284;46.514;30.724;2023-08-06T10:50:07;99617.53;;;32.22
42673;BMP280;28284;46.514;30.724;2023-08-06T10:52:34;99632.25;;;32.15
42673;BMP280;28284;46.514;30.724;2023-08-06T10:54:59;99623.63;;;32.13
42673;BMP280;28284;46.514;30.724;2023-08-06T10:57:25;99619.34;;;32.12
42673;BMP280;28284;46.514;30.724;2023-08-06T10:59:50;99636.91;;;32.13
42673;BMP280;28284;46.514;30.724;2023-08-06T11:02:16;99626.06;;;32.09
42673;BMP280;28284;46.514;30.724;2023-08-06T11:04:42;99620.06;;;32.05
42673;BMP280;28284;46.514;30.724;2023-08-06T11:07:07;99623.25;;;32.02
42673;BMP280;28284;46.514;30.724;2023-08-06T11:09:32;99626.56;;;32.01
42673;BMP280;28284;46.514;30.724;2023-08-06T11:12:01;99614.78;;;31.95
42673;BMP280;28284;46.514;30.724;2023-08-06T11:14:30;99624.84;;;31.90
42673;BMP280;28284;46.514;30.724;2023-08-06T11:16:57;99616.75;;;31.79
42673;BMP280;28284;46.514;30.724;2023-08-06T11:19:22;99611.13;;;31.72
42673;BMP280;28284;46.514;30.724;2023-08-06T11:21:49;99608.84;;;31.63
42673;BMP280;28284;46.514;30.724;2023-08-06T11:24:14;99615.38;;;31.58
42673;BMP280;28284;46.514;30.724;2023-08-06T11:26:40;99608.59;;;31.54
42673;BMP280;28284;46.514;30.724;2023-08-06T11:29:05;99617.75;;;31.54
42673;BMP280;28284;46.514;30.724;2023-08-06T11:31:31;99603.56;;;31.52
42673;BMP280;28284;46.514;30.724;2023-08-06T11:33:56;99602.81;;;31.52
42673;BMP280;28284;46.514;30.724;2023-08-06T11:36:28;99593.47;;;31.49
42673;BMP280;28284;46.514;30.724;2023-08-06T11:38:54;99597.19;;;31.52
42673;BMP280;28284;46.514;30.724;2023-08-06T11:41:19;99591.59;;;31.52
42673;BMP280;28284;46.514;30.724;2023-08-06T11:43:45;99597.56;;;31.48
42673;BMP280;28284;46.514;30.724;2023-08-06T11:46:11;99580.03;;;31.48
42673;BMP280;28284;46.514;30.724;2023-08-06T11:48:52;99577.78;;;31.46
42673;BMP280;28284;46.514;30.724;2023-08-06T11:51:17;99573.09;;;31.41
42673;BMP280;28284;46.514;30.724;2023-08-06T11:53:46;99566.88;;;31.35
42673;BMP280;28284;46.514;30.724;2023-08-06T11:56:13;99565.38;;;31.34
42673;BMP280;28284;46.514;30.724;2023-08-06T11:58:40;99558.28;;;31.33
42673;BMP280;28284;46.514;30.724;2023-08-06T12:01:05;99553.78;;;31.30
42673;BMP280;28284;46.514;30.724;2023-08-06T12:03:31;99553.97;;;31.32
42673;BMP280;28284;46.514;30.724;2023-08-06T12:05:56;99553.25;;;31.32
42673;BMP280;28284;46.514;30.724;2023-08-06T12:08:25;99546.34;;;31.33
42673;BMP280;28284;46.514;30.724;2023-08-06T12:10:51;99547.50;;;31.37
42673;BMP280;28284;46.514;30.724;2023-08-06T12:13:18;99546.59;;;31.42
42673;BMP280;28284;46.514;30.724;2023-08-06T12:15:44;99555.19;;;31.44
42673;BMP280;28284;46.514;30.724;2023-08-06T12:18:09;99555.72;;;31.43
42673;BMP280;28284;46.514;30.724;2023-08-06T12:20:35;99544.19;;;31.46
42673;BMP280;28284;46.514;30.724;2023-08-06T12:23:00;99546.78;;;31.44
42673;BMP280;28284;46.514;30.724;2023-08-06T12:25:25;99547.59;;;31.52
42673;BMP280;28284;46.514;30.724;2023-08-06T12:27:51;99532.47;;;31.55
42673;BMP280;28284;46.514;30.724;2023-08-06T12:30:16;99528.56;;;31.58
42673;BMP280;28284;46.514;30.724;2023-08-06T12:32:42;99527.09;;;31.64
42673;BMP280;28284;46.514;30.724;2023-08-06T12:35:07;99519.28;;;31.70
42673;BMP280;28284;46.514;30.724;2023-08-06T12:37:33;99515.13;;;31.64
42673;BMP280;28284;46.514;30.724;2023-08-06T12:39:58;99517.16;;;31.56
42673;BMP280;28284;46.514;30.724;2023-08-06T12:42:23;99515.28;;;31.51
42673;BMP280;28284;46.514;30.724;2023-08-06T12:44:49;99519.19;;;31.48
42673;BMP280;28284;46.514;30.724;2023-08-06T12:47:15;99519.50;;;31.37
42673;BMP280;28284;46.514;30.724;2023-08-06T12:49:41;99529.16;;;31.29
42673;BMP280;28284;46.514;30.724;2023-08-06T12:52:07;99516.81;;;31.24
42673;BMP280;28284;46.514;30.724;2023-08-06T12:54:34;99516.63;;;31.22
42673;BMP280;28284;46.514;30.724;2023-08-06T12:57:02;99518.25;;;31.18
42673;BMP280;28284;46.514;30.724;2023-08-06T12:59:27;99528.34;;;31.13
42673;BMP280;28284;46.514;30.724;2023-08-06T13:01:52;99512.00;;;31.05
42673;BMP280;28284;46.514;30.724;2023-08-06T13:04:18;99507.72;;;31.04
42673;BMP280;28284;46.514;30.724;2023-08-06T13:06:43;99499.91;;;31.02
42673;BMP280;28284;46.514;30.724;2023-08-06T13:09:09;99496.31;;;31.02
42673;BMP280;28284;46.514;30.724;2023-08-06T13:11:35;99489.03;;;30.99
42673;BMP280;28284;46.514;30.724;2023-08-06T13:14:07;99490.31;;;30.98
42673;BMP280;28284;46.514;30.724;2023-08-06T13:16:34;99495.34;;;30.92
42673;BMP280;28284;46.514;30.724;2023-08-06T13:18:59;99507.22;;;30.85
42673;BMP280;28284;46.514;30.724;2023-08-06T13:21:31;99491.19;;;30.85
42673;BMP280;28284;46.514;30.724;2023-08-06T13:23:57;99496.56;;;30.83
42673;BMP280;28284;46.514;30.724;2023-08-06T13:26:22;99486.88;;;30.84
42673;BMP280;28284;46.514;30.724;2023-08-06T13:28:47;99493.66;;;30.89
42673;BMP280;28284;46.514;30.724;2023-08-06T13:31:14;99492.13;;;30.88
42673;BMP280;28284;46.514;30.724;2023-08-06T13:33:39;99479.47;;;30.87
42673;BMP280;28284;46.514;30.724;2023-08-06T13:36:04;99497.88;;;30.82
42673;BMP280;28284;46.514;30.724;2023-08-06T13:38:30;99477.00;;;30.83
42673;BMP280;28284;46.514;30.724;2023-08-06T13:40:55;99477.78;;;30.84
42673;BMP280;28284;46.514;30.724;2023-08-06T13:43:20;99480.34;;;30.82
42673;BMP280;28284;46.514;30.724;2023-08-06T13:45:46;99472.66;;;30.75
42673;BMP280;28284;46.514;30.724;2023-08-06T13:48:11;99491.84;;;30.71
42673;BMP280;28284;46.514;30.724;2023-08-06T13:50:36;99478.41;;;30.69
42673;BMP280;28284;46.514;30.724;2023-08-06T13:53:04;99472.47;;;30.73
42673;BMP280;28284;46.514;30.724;2023-08-06T13:55:30;99477.91;;;30.78
42673;BMP280;28284;46.514;30.724;2023-08-06T13:57:55;99474.22;;;30.83
42673;BMP280;28284;46.514;30.724;2023-08-06T14:00:23;99461.69;;;30.84